sensor_id;sensor_type;location;lat;lon;timestamp;P1;durP1;ratioP1;P2;durP2;ratioP2
11263;SDS011;5689;48.798;9.070;2024-03-25T00:00:22;0.60;;;0.60;;
11263;SDS011;5689;48.798;9.070;2024-03-25T00:02:50;0.50;;;0.50;;
11263;SDS011;5689;48.798;9.070;2024-03-25T00:05:16;0.60;;;0.60;;
11263;SDS011;5689;48.798;9.070;2024-03-25T00:07:47;0.60;;;0.60;;
11263;SDS011;5689;48.798;9.070;2024-03-25T00:10:15;0.70;;;0.70;;
11263;SDS011;5689;48.798;9.070;2024-03-25T00:12:42;0.60;;;0.60;;
11263;SDS011;5689;48.798;9.070;2024-03-25T00:15:09;0.50;;;0.50;;
11263;SDS011;5689;48.798;9.070;2024-03-25T00:17:36;0.70;;;0.70;;
11263;SDS011;5689;48.798;9.070;2024-03-25T00:20:02;0.60;;;0.60;;
11263;SDS011;5689;48.798;9.070;2024-03-25T00:22:31;0.60;;;0.60;;
11263;SDS011;5689;48.798;9.070;2024-03-25T00:24:57;0.60;;;0.60;;
11263;SDS011;5689;48.798;9.070;2024-03-25T00:27:25;0.50;;;0.50;;
11263;SDS011;5689;48.798;9.070;2024-03-25T00:29:51;0.60;;;0.60;;
11263;SDS011;5689;48.798;9.070;2024-03-25T00:32:18;0.70;;;0.70;;
11263;SDS011;5689;48.798;9.070;2024-03-25T00:34:45;0.60;;;0.60;;
11263;SDS011;5689;48.798;9.070;2024-03-25T00:37:12;0.60;;;0.60;;
11263;SDS011;5689;48.798;9.070;2024-03-25T00:39:38;0.50;;;0.50;;
11263;SDS011;5689;48.798;9.070;2024-03-25T00:42:05;0.63;;;0.63;;
11263;SDS011;5689;48.798;9.070;2024-03-25T00:44:33;0.60;;;0.60;;
11263;SDS011;5689;48.798;9.070;2024-03-25T00:47:00;0.70;;;0.70;;
11263;SDS011;5689;48.798;9.070;2024-03-25T00:49:26;0.70;;;0.70;;
11263;SDS011;5689;48.798;9.070;2024-03-25T00:51:53;0.60;;;0.60;;
11263;SDS011;5689;48.798;9.070;2024-03-25T00:54:19;0.50;;;0.50;;
11263;SDS011;5689;48.798;9.070;2024-03-25T00:56:47;0.67;;;0.67;;
11263;SDS011;5689;48.798;9.070;2024-03-25T00:59:13;0.60;;;0.60;;
11263;SDS011;5689;48.798;9.070;2024-03-25T01:01:41;0.50;;;0.50;;
11263;SDS011;5689;48.798;9.070;2024-03-25T01:04:07;0.57;;;0.57;;
11263;SDS011;5689;48.798;9.070;2024-03-25T01:06:34;0.60;;;0.60;;
11263;SDS011;5689;48.798;9.070;2024-03-25T01:09:00;0.50;;;0.50;;
11263;SDS011;5689;48.798;9.070;2024-03-25T01:11:27;0.50;;;0.50;;
11263;SDS011;5689;48.798;9.070;2024-03-25T01:13:53;0.57;;;0.57;;
11263;SDS011;5689;48.798;9.070;2024-03-25T01:16:20;0.60;;;0.60;;
11263;SDS011;5689;48.798;9.070;2024-03-25T01:18:47;0.70;;;0.70;;
11263;SDS011;5689;48.798;9.070;2024-03-25T01:21:14;0.60;;;0.60;;
11263;SDS011;5689;48.798;9.070;2024-03-25T01:23:40;0.60;;;0.60;;
11263;SDS011;5689;48.798;9.070;2024-03-25T01:26:07;0.70;;;0.70;;
11263;SDS011;5689;48.798;9.070;2024-03-25T01:28:33;0.70;;;0.70;;
11263;SDS011;5689;48.798;9.070;2024-03-25T01:31:00;0.70;;;0.70;;
11263;SDS011;5689;48.798;9.070;2024-03-25T01:33:26;0.60;;;0.60;;
11263;SDS011;5689;48.798;9.070;2024-03-25T01:35:54;0.60;;;0.60;;
11263;SDS011;5689;48.798;9.070;2024-03-25T01:38:21;0.70;;;0.70;;
11263;SDS011;5689;48.798;9.070;2024-03-25T01:40:48;0.60;;;0.60;;
11263;SDS011;5689;48.798;9.070;2024-03-25T01:43:14;0.60;;;0.60;;
11263;SDS011;5689;48.798;9.070;2024-03-25T01:45:42;0.60;;;0.60;;
11263;SDS011;5689;48.798;9.070;2024-03-25T01:48:08;0.60;;;0.60;;
11263;SDS011;5689;48.798;9.070;2024-03-25T01:50:39;0.60;;;0.60;;
11263;SDS011;5689;48.798;9.070;2024-03-25T01:53:08;0.50;;;0.50;;
11263;SDS011;5689;48.798;9.070;2024-03-25T01:55:37;0.60;;;0.60;;
11263;SDS011;5689;48.798;9.070;2024-03-25T01:58:07;0.60;;;0.60;;
11263;SDS011;5689;48.798;9.070;2024-03-25T02:00:34;0.60;;;0.60;;
11263;SDS011;5689;48.798;9.070;2024-03-25T02:03:01;0.63;;;0.63;;
11263;SDS011;5689;48.798;9.070;2024-03-25T02:05:28;0.50;;;0.50;;
11263;SDS011;5689;48.798;9.070;2024-03-25T02:07:54;0.63;;;0.63;;
11263;SDS011;5689;48.798;9.070;2024-03-25T02:10:23;0.60;;;0.60;;
11263;SDS011;5689;48.798;9.070;2024-03-25T02:12:50;0.60;;;0.60;;
11263;SDS011;5689;48.798;9.070;2024-03-25T02:15:18;0.60;;;0.60;;
11263;SDS011;5689;48.798;9.070;2024-03-25T02:17:44;0.60;;;0.60;;
11263;SDS011;5689;48.798;9.070;2024-03-25T02:20:11;0.60;;;0.60;;
11263;SDS011;5689;48.798;9.070;2024-03-25T02:22:41;0.70;;;0.70;;
11263;SDS011;5689;48.798;9.070;2024-03-25T02:25:08;0.70;;;0.70;;
11263;SDS011;5689;48.798;9.070;2024-03-25T02:27:37;0.50;;;0.50;;
11263;SDS011;5689;48.798;9.070;2024-03-25T02:30:05;0.60;;;0.60;;
11263;SDS011;5689;48.798;9.070;2024-03-25T02:32:32;0.70;;;0.70;;
11263;SDS011;5689;48.798;9.070;2024-03-25T02:35:00;0.60;;;0.60;;
11263;SDS011;5689;48.798;9.070;2024-03-25T02:37:29;0.60;;;0.60;;
11263;SDS011;5689;48.798;9.070;2024-03-25T02:39:57;0.50;;;0.50;;
11263;SDS011;5689;48.798;9.070;2024-03-25T02:42:24;0.50;;;0.50;;
11263;SDS011;5689;48.798;9.070;2024-03-25T02:44:53;0.70;;;0.70;;
11263;SDS011;5689;48.798;9.070;2024-03-25T02:47:20;0.50;;;0.50;;
11263;SDS011;5689;48.798;9.070;2024-03-25T02:49:47;0.60;;;0.60;;
11263;SDS011;5689;48.798;9.070;2024-03-25T02:52:13;0.60;;;0.60;;
11263;SDS011;5689;48.798;9.070;2024-03-25T02:54:41;0.60;;;0.60;;
11263;SDS011;5689;48.798;9.070;2024-03-25T02:57:07;0.50;;;0.50;;
11263;SDS011;5689;48.798;9.070;2024-03-25T02:59:34;0.60;;;0.60;;
11263;SDS011;5689;48.798;9.070;2024-03-25T03:02:02;0.60;;;0.60;;
11263;SDS011;5689;48.798;9.070;2024-03-25T03:04:29;0.50;;;0.50;;
11263;SDS011;5689;48.798;9.070;2024-03-25T03:06:55;0.50;;;0.50;;
11263;SDS011;5689;48.798;9.070;2024-03-25T03:09:22;0.60;;;0.60;;
11263;SDS011;5689;48.798;9.070;2024-03-25T03:11:49;0.50;;;0.50;;
11263;SDS011;5689;48.798;9.070;2024-03-25T03:14:16;0.60;;;0.60;;
11263;SDS011;5689;48.798;9.070;2024-03-25T03:16:42;0.60;;;0.60;;
11263;SDS011;5689;48.798;9.070;2024-03-25T03:19:10;0.60;;;0.60;;
11263;SDS011;5689;48.798;9.070;2024-03-25T03:21:36;0.63;;;0.63;;
11263;SDS011;5689;48.798;9.070;2024-03-25T03:24:03;0.60;;;0.60;;
11263;SDS011;5689;48.798;9.070;2024-03-25T03:26:30;0.60;;;0.60;;
11263;SDS011;5689;48.798;9.070;2024-03-25T03:28:57;0.60;;;0.60;;
11263;SDS011;5689;48.798;9.070;2024-03-25T03:31:23;0.60;;;0.60;;
11263;SDS011;5689;48.798;9.070;2024-03-25T03:33:51;0.50;;;0.50;;
11263;SDS011;5689;48.798;9.070;2024-03-25T03:36:19;0.60;;;0.60;;
11263;SDS011;5689;48.798;9.070;2024-03-25T03:38:49;0.67;;;0.67;;
11263;SDS011;5689;48.798;9.070;2024-03-25T03:41:16;0.60;;;0.60;;
11263;SDS011;5689;48.798;9.070;2024-03-25T03:43:43;0.60;;;0.60;;
11263;SDS011;5689;48.798;9.070;2024-03-25T03:46:09;0.60;;;0.60;;
11263;SDS011;5689;48.798;9.070;2024-03-25T03:48:36;0.60;;;0.60;;
11263;SDS011;5689;48.798;9.070;2024-03-25T03:51:03;0.50;;;0.50;;
11263;SDS011;5689;48.798;9.070;2024-03-25T03:53:32;0.60;;;0.60;;
11263;SDS011;5689;48.798;9.070;2024-03-25T03:55:59;0.50;;;0.50;;
11263;SDS011;5689;48.798;9.070;2024-03-25T03:58:28;0.50;;;0.50;;
11263;SDS011;5689;48.798;9.070;2024-03-25T04:00:54;0.50;;;0.50;;
11263;SDS011;5689;48.798;9.070;2024-03-25T04:03:21;0.50;;;0.50;;
11263;SDS011;5689;48.798;9.070;2024-03-25T04:05:47;0.60;;;0.60;;
11263;SDS011;5689;48.798;9.070;2024-03-25T04:08:14;0.50;;;0.50;;
11263;SDS011;5689;48.798;9.070;2024-03-25T04:10:42;0.50;;;0.50;;
11263;SDS011;5689;48.798;9.070;2024-03-25T04:13:11;0.60;;;0.60;;
11263;SDS011;5689;48.798;9.070;2024-03-25T04:15:38;0.60;;;0.60;;
11263;SDS011;5689;48.798;9.070;2024-03-25T04:18:09;0.60;;;0.60;;
11263;SDS011;5689;48.798;9.070;2024-03-25T04:20:36;0.60;;;0.60;;
11263;SDS011;5689;48.798;9.070;2024-03-25T04:23:04;0.60;;;0.60;;
11263;SDS011;5689;48.798;9.070;2024-03-25T04:25:32;0.50;;;0.50;;
11263;SDS011;5689;48.798;9.070;2024-03-25T04:28:00;0.50;;;0.50;;
11263;SDS011;5689;48.798;9.070;2024-03-25T04:30:27;0.50;;;0.50;;
11263;SDS011;5689;48.798;9.070;2024-03-25T04:32:54;0.60;;;0.60;;
11263;SDS011;5689;48.798;9.070;2024-03-25T04:35:20;0.60;;;0.60;;
11263;SDS011;5689;48.798;9.070;2024-03-25T04:37:47;0.60;;;0.60;;
11263;SDS011;5689;48.798;9.070;2024-03-25T04:40:13;0.57;;;0.57;;
11263;SDS011;5689;48.798;9.070;2024-03-25T04:42:39;0.50;;;0.50;;
11263;SDS011;5689;48.798;9.070;2024-03-25T04:45:07;0.60;;;0.60;;
11263;SDS011;5689;48.798;9.070;2024-03-25T04:47:34;0.77;;;0.77;;
11263;SDS011;5689;48.798;9.070;2024-03-25T04:50:00;0.63;;;0.63;;
11263;SDS011;5689;48.798;9.070;2024-03-25T04:52:26;0.63;;;0.63;;
11263;SDS011;5689;48.798;9.070;2024-03-25T04:54:52;0.60;;;0.60;;
11263;SDS011;5689;48.798;9.070;2024-03-25T04:57:18;0.60;;;0.60;;
11263;SDS011;5689;48.798;9.070;2024-03-25T04:59:44;0.50;;;0.50;;
11263;SDS011;5689;48.798;9.070;2024-03-25T05:02:12;0.60;;;0.60;;
11263;SDS011;5689;48.798;9.070;2024-03-25T05:04:38;0.60;;;0.60;;
11263;SDS011;5689;48.798;9.070;2024-03-25T05:07:04;0.60;;;0.60;;
11263;SDS011;5689;48.798;9.070;2024-03-25T05:09:30;0.70;;;0.70;;
11263;SDS011;5689;48.798;9.070;2024-03-25T05:11:56;0.70;;;0.70;;
11263;SDS011;5689;48.798;9.070;2024-03-25T05:14:23;0.60;;;0.60;;
11263;SDS011;5689;48.798;9.070;2024-03-25T05:16:50;0.60;;;0.60;;
11263;SDS011;5689;48.798;9.070;2024-03-25T05:19:17;0.50;;;0.50;;
11263;SDS011;5689;48.798;9.070;2024-03-25T05:21:44;0.60;;;0.60;;
11263;SDS011;5689;48.798;9.070;2024-03-25T05:24:10;0.60;;;0.60;;
11263;SDS011;5689;48.798;9.070;2024-03-25T05:26:36;0.60;;;0.60;;
11263;SDS011;5689;48.798;9.070;2024-03-25T05:29:02;0.60;;;0.60;;
11263;SDS011;5689;48.798;9.070;2024-03-25T05:31:28;0.60;;;0.60;;
11263;SDS011;5689;48.798;9.070;2024-03-25T05:33:54;0.60;;;0.60;;
11263;SDS011;5689;48.798;9.070;2024-03-25T05:36:22;0.50;;;0.50;;
11263;SDS011;5689;48.798;9.070;2024-03-25T05:38:48;0.50;;;0.50;;
11263;SDS011;5689;48.798;9.070;2024-03-25T05:41:14;0.60;;;0.60;;
11263;SDS011;5689;48.798;9.070;2024-03-25T05:43:40;0.70;;;0.70;;
11263;SDS011;5689;48.798;9.070;2024-03-25T05:46:06;0.50;;;0.50;;
11263;SDS011;5689;48.798;9.070;2024-03-25T05:48:32;0.60;;;0.60;;
11263;SDS011;5689;48.798;9.070;2024-03-25T05:50:59;0.70;;;0.70;;
11263;SDS011;5689;48.798;9.070;2024-03-25T05:53:27;0.60;;;0.60;;
11263;SDS011;5689;48.798;9.070;2024-03-25T05:55:54;0.60;;;0.60;;
11263;SDS011;5689;48.798;9.070;2024-03-25T05:58:20;0.50;;;0.50;;
11263;SDS011;5689;48.798;9.070;2024-03-25T06:00:47;0.60;;;0.60;;
11263;SDS011;5689;48.798;9.070;2024-03-25T06:03:13;0.60;;;0.60;;
11263;SDS011;5689;48.798;9.070;2024-03-25T06:05:40;0.60;;;0.60;;
11263;SDS011;5689;48.798;9.070;2024-03-25T06:08:06;0.60;;;0.60;;
11263;SDS011;5689;48.798;9.070;2024-03-25T06:10:38;0.50;;;0.50;;
11263;SDS011;5689;48.798;9.070;2024-03-25T06:13:04;0.60;;;0.60;;
11263;SDS011;5689;48.798;9.070;2024-03-25T06:15:30;0.67;;;0.67;;
11263;SDS011;5689;48.798;9.070;2024-03-25T06:17:56;0.80;;;0.80;;
11263;SDS011;5689;48.798;9.070;2024-03-25T06:20:22;0.60;;;0.60;;
11263;SDS011;5689;48.798;9.070;2024-03-25T06:22:49;0.50;;;0.50;;
11263;SDS011;5689;48.798;9.070;2024-03-25T06:25:15;0.50;;;0.50;;
11263;SDS011;5689;48.798;9.070;2024-03-25T06:27:43;0.50;;;0.50;;
11263;SDS011;5689;48.798;9.070;2024-03-25T06:30:10;0.40;;;0.40;;
11263;SDS011;5689;48.798;9.070;2024-03-25T06:32:55;0.47;;;0.47;;
11263;SDS011;5689;48.798;9.070;2024-03-25T06:35:41;0.43;;;0.43;;
11263;SDS011;5689;48.798;9.070;2024-03-25T06:38:08;0.53;;;0.53;;
11263;SDS011;5689;48.798;9.070;2024-03-25T06:40:34;0.60;;;0.60;;
11263;SDS011;5689;48.798;9.070;2024-03-25T06:43:02;0.70;;;0.70;;
11263;SDS011;5689;48.798;9.070;2024-03-25T06:45:28;0.60;;;0.60;;
11263;SDS011;5689;48.798;9.070;2024-03-25T06:47:54;0.60;;;0.60;;
11263;SDS011;5689;48.798;9.070;2024-03-25T06:50:23;0.40;;;0.40;;
11263;SDS011;5689;48.798;9.070;2024-03-25T06:52:49;0.50;;;0.50;;
11263;SDS011;5689;48.798;9.070;2024-03-25T06:55:15;0.50;;;0.50;;
11263;SDS011;5689;48.798;9.070;2024-03-25T06:57:41;0.70;;;0.70;;
11263;SDS011;5689;48.798;9.070;2024-03-25T07:00:09;0.50;;;0.50;;
11263;SDS011;5689;48.798;9.070;2024-03-25T07:02:36;0.40;;;0.40;;
11263;SDS011;5689;48.798;9.070;2024-03-25T07:05:02;0.40;;;0.40;;
11263;SDS011;5689;48.798;9.070;2024-03-25T07:07:29;0.70;;;0.70;;
11263;SDS011;5689;48.798;9.070;2024-03-25T07:09:55;0.40;;;0.40;;
11263;SDS011;5689;48.798;9.070;2024-03-25T07:12:21;0.70;;;0.70;;
11263;SDS011;5689;48.798;9.070;2024-03-25T07:14:47;0.40;;;0.40;;
11263;SDS011;5689;48.798;9.070;2024-03-25T07:17:14;0.47;;;0.47;;
11263;SDS011;5689;48.798;9.070;2024-03-25T07:19:40;0.40;;;0.40;;
11263;SDS011;5689;48.798;9.070;2024-03-25T07:22:06;0.40;;;0.40;;
11263;SDS011;5689;48.798;9.070;2024-03-25T07:24:33;0.30;;;0.30;;
11263;SDS011;5689;48.798;9.070;2024-03-25T07:26:59;0.30;;;0.30;;
11263;SDS011;5689;48.798;9.070;2024-03-25T07:29:25;0.20;;;0.20;;
11263;SDS011;5689;48.798;9.070;2024-03-25T07:31:51;0.20;;;0.20;;
11263;SDS011;5689;48.798;9.070;2024-03-25T07:34:18;0.13;;;0.13;;
11263;SDS011;5689;48.798;9.070;2024-03-25T07:36:45;0.20;;;0.20;;
11263;SDS011;5689;48.798;9.070;2024-03-25T07:39:11;0.20;;;0.20;;
11263;SDS011;5689;48.798;9.070;2024-03-25T07:41:38;0.10;;;0.10;;
11263;SDS011;5689;48.798;9.070;2024-03-25T07:44:04;0.20;;;0.20;;
11263;SDS011;5689;48.798;9.070;2024-03-25T07:46:30;0.10;;;0.10;;
11263;SDS011;5689;48.798;9.070;2024-03-25T07:48:56;0.20;;;0.20;;
11263;SDS011;5689;48.798;9.070;2024-03-25T07:51:24;0.20;;;0.20;;
11263;SDS011;5689;48.798;9.070;2024-03-25T07:53:50;0.20;;;0.20;;
11263;SDS011;5689;48.798;9.070;2024-03-25T07:56:16;0.20;;;0.20;;
11263;SDS011;5689;48.798;9.070;2024-03-25T07:58:42;0.20;;;0.20;;
11263;SDS011;5689;48.798;9.070;2024-03-25T08:01:08;0.20;;;0.20;;
11263;SDS011;5689;48.798;9.070;2024-03-25T08:03:34;0.20;;;0.20;;
11263;SDS011;5689;48.798;9.070;2024-03-25T08:06:00;0.10;;;0.10;;
11263;SDS011;5689;48.798;9.070;2024-03-25T08:08:28;0.20;;;0.20;;
11263;SDS011;5689;48.798;9.070;2024-03-25T08:10:54;0.10;;;0.10;;
11263;SDS011;5689;48.798;9.070;2024-03-25T08:13:20;0.10;;;0.10;;
11263;SDS011;5689;48.798;9.070;2024-03-25T08:15:47;0.10;;;0.10;;
11263;SDS011;5689;48.798;9.070;2024-03-25T08:18:13;0.00;;;0.00;;
11263;SDS011;5689;48.798;9.070;2024-03-25T08:20:39;0.10;;;0.10;;
11263;SDS011;5689;48.798;9.070;2024-03-25T08:23:05;0.13;;;0.13;;
11263;SDS011;5689;48.798;9.070;2024-03-25T08:25:34;0.20;;;0.20;;
11263;SDS011;5689;48.798;9.070;2024-03-25T08:28:00;0.10;;;0.10;;
11263;SDS011;5689;48.798;9.070;2024-03-25T08:30:26;0.20;;;0.20;;
11263;SDS011;5689;48.798;9.070;2024-03-25T08:32:52;0.20;;;0.20;;
11263;SDS011;5689;48.798;9.070;2024-03-25T08:35:18;0.20;;;0.20;;
11263;SDS011;5689;48.798;9.070;2024-03-25T08:37:44;0.03;;;0.03;;
11263;SDS011;5689;48.798;9.070;2024-03-25T08:40:10;0.10;;;0.10;;
11263;SDS011;5689;48.798;9.070;2024-03-25T08:42:38;0.10;;;0.10;;
11263;SDS011;5689;48.798;9.070;2024-03-25T08:45:04;0.13;;;0.13;;
11263;SDS011;5689;48.798;9.070;2024-03-25T08:47:31;0.15;;;0.10;;
11263;SDS011;5689;48.798;9.070;2024-03-25T08:49:57;0.10;;;0.10;;
11263;SDS011;5689;48.798;9.070;2024-03-25T08:52:24;0.10;;;0.10;;
11263;SDS011;5689;48.798;9.070;2024-03-25T08:54:50;0.10;;;0.10;;
11263;SDS011;5689;48.798;9.070;2024-03-25T08:57:16;0.10;;;0.10;;
11263;SDS011;5689;48.798;9.070;2024-03-25T08:59:44;0.10;;;0.10;;
11263;SDS011;5689;48.798;9.070;2024-03-25T09:02:10;0.10;;;0.10;;
11263;SDS011;5689;48.798;9.070;2024-03-25T09:04:36;0.10;;;0.10;;
11263;SDS011;5689;48.798;9.070;2024-03-25T09:07:02;0.20;;;0.20;;
11263;SDS011;5689;48.798;9.070;2024-03-25T09:09:28;0.20;;;0.20;;
11263;SDS011;5689;48.798;9.070;2024-03-25T09:12:13;0.32;;;0.32;;
11263;SDS011;5689;48.798;9.070;2024-03-25T09:14:39;0.25;;;0.25;;
11263;SDS011;5689;48.798;9.070;2024-03-25T09:17:08;0.28;;;0.28;;
11263;SDS011;5689;48.798;9.070;2024-03-25T09:19:34;0.30;;;0.30;;
11263;SDS011;5689;48.798;9.070;2024-03-25T09:22:00;0.20;;;0.20;;
11263;SDS011;5689;48.798;9.070;2024-03-25T09:24:26;0.20;;;0.20;;
11263;SDS011;5689;48.798;9.070;2024-03-25T09:26:53;0.20;;;0.20;;
11263;SDS011;5689;48.798;9.070;2024-03-25T09:29:19;0.20;;;0.20;;
11263;SDS011;5689;48.798;9.070;2024-03-25T09:31:45;0.20;;;0.20;;
11263;SDS011;5689;48.798;9.070;2024-03-25T09:34:12;0.20;;;0.20;;
11263;SDS011;5689;48.798;9.070;2024-03-25T09:36:38;0.10;;;0.10;;
11263;SDS011;5689;48.798;9.070;2024-03-25T09:39:04;0.15;;;0.15;;
11263;SDS011;5689;48.798;9.070;2024-03-25T09:41:30;0.13;;;0.13;;
11263;SDS011;5689;48.798;9.070;2024-03-25T09:43:59;0.20;;;0.20;;
11263;SDS011;5689;48.798;9.070;2024-03-25T09:46:25;0.20;;;0.20;;
11263;SDS011;5689;48.798;9.070;2024-03-25T09:48:52;0.10;;;0.10;;
11263;SDS011;5689;48.798;9.070;2024-03-25T09:51:20;0.20;;;0.20;;
11263;SDS011;5689;48.798;9.070;2024-03-25T09:53:46;0.20;;;0.20;;
11263;SDS011;5689;48.798;9.070;2024-03-25T09:56:13;0.20;;;0.20;;
11263;SDS011;5689;48.798;9.070;2024-03-25T09:58:39;0.20;;;0.20;;
11263;SDS011;5689;48.798;9.070;2024-03-25T10:01:06;0.20;;;0.20;;
11263;SDS011;5689;48.798;9.070;2024-03-25T10:03:32;0.10;;;0.10;;
11263;SDS011;5689;48.798;9.070;2024-03-25T10:05:58;0.20;;;0.20;;
11263;SDS011;5689;48.798;9.070;2024-03-25T10:08:26;0.20;;;0.20;;
11263;SDS011;5689;48.798;9.070;2024-03-25T10:10:52;0.13;;;0.13;;
11263;SDS011;5689;48.798;9.070;2024-03-25T10:13:19;0.20;;;0.20;;
11263;SDS011;5689;48.798;9.070;2024-03-25T10:15:48;0.17;;;0.17;;
11263;SDS011;5689;48.798;9.070;2024-03-25T10:18:14;0.10;;;0.10;;
11263;SDS011;5689;48.798;9.070;2024-03-25T10:20:47;0.10;;;0.10;;
11263;SDS011;5689;48.798;9.070;2024-03-25T10:23:13;0.10;;;0.10;;
11263;SDS011;5689;48.798;9.070;2024-03-25T10:25:41;0.10;;;0.10;;
11263;SDS011;5689;48.798;9.070;2024-03-25T10:28:08;0.10;;;0.10;;
11263;SDS011;5689;48.798;9.070;2024-03-25T10:30:34;0.10;;;0.10;;
11263;SDS011;5689;48.798;9.070;2024-03-25T10:33:00;0.30;;;0.30;;
11263;SDS011;5689;48.798;9.070;2024-03-25T10:35:28;0.30;;;0.30;;
11263;SDS011;5689;48.798;9.070;2024-03-25T10:37:55;0.45;;;0.45;;
11263;SDS011;5689;48.798;9.070;2024-03-25T10:40:24;0.20;;;0.20;;
11263;SDS011;5689;48.798;9.070;2024-03-25T10:42:55;0.20;;;0.20;;
11263;SDS011;5689;48.798;9.070;2024-03-25T10:45:31;0.32;;;0.32;;
11263;SDS011;5689;48.798;9.070;2024-03-25T10:47:59;0.20;;;0.20;;
11263;SDS011;5689;48.798;9.070;2024-03-25T10:50:30;0.30;;;0.30;;
11263;SDS011;5689;48.798;9.070;2024-03-25T10:52:59;0.30;;;0.30;;
11263;SDS011;5689;48.798;9.070;2024-03-25T10:55:28;0.20;;;0.20;;
11263;SDS011;5689;48.798;9.070;2024-03-25T10:57:57;0.22;;;0.22;;
11263;SDS011;5689;48.798;9.070;2024-03-25T11:00:23;0.20;;;0.20;;
11263;SDS011;5689;48.798;9.070;2024-03-25T11:02:50;0.20;;;0.20;;
11263;SDS011;5689;48.798;9.070;2024-03-25T11:05:17;0.20;;;0.20;;
11263;SDS011;5689;48.798;9.070;2024-03-25T11:07:44;0.20;;;0.20;;
11263;SDS011;5689;48.798;9.070;2024-03-25T11:10:10;0.10;;;0.10;;
11263;SDS011;5689;48.798;9.070;2024-03-25T11:12:38;0.20;;;0.20;;
11263;SDS011;5689;48.798;9.070;2024-03-25T11:15:07;0.20;;;0.20;;
11263;SDS011;5689;48.798;9.070;2024-03-25T11:17:35;0.20;;;0.20;;
11263;SDS011;5689;48.798;9.070;2024-03-25T11:20:12;0.20;;;0.20;;
11263;SDS011;5689;48.798;9.070;2024-03-25T11:22:47;0.20;;;0.20;;
11263;SDS011;5689;48.798;9.070;2024-03-25T11:25:14;0.28;;;0.28;;
11263;SDS011;5689;48.798;9.070;2024-03-25T11:27:42;0.20;;;0.20;;
11263;SDS011;5689;48.798;9.070;2024-03-25T11:30:10;0.30;;;0.30;;
11263;SDS011;5689;48.798;9.070;2024-03-25T11:32:43;0.40;;;0.40;;
11263;SDS011;5689;48.798;9.070;2024-03-25T11:35:10;0.30;;;0.30;;
11263;SDS011;5689;48.798;9.070;2024-03-25T11:37:39;0.20;;;0.20;;
11263;SDS011;5689;48.798;9.070;2024-03-25T11:40:06;0.10;;;0.10;;
11263;SDS011;5689;48.798;9.070;2024-03-25T11:42:33;0.20;;;0.20;;
11263;SDS011;5689;48.798;9.070;2024-03-25T11:44:59;0.15;;;0.15;;
11263;SDS011;5689;48.798;9.070;2024-03-25T11:47:27;0.10;;;0.10;;
11263;SDS011;5689;48.798;9.070;2024-03-25T11:49:54;0.10;;;0.10;;
11263;SDS011;5689;48.798;9.070;2024-03-25T11:52:20;0.10;;;0.10;;
11263;SDS011;5689;48.798;9.070;2024-03-25T11:54:53;0.10;;;0.10;;
11263;SDS011;5689;48.798;9.070;2024-03-25T11:57:20;0.20;;;0.20;;
11263;SDS011;5689;48.798;9.070;2024-03-25T11:59:46;0.10;;;0.10;;
11263;SDS011;5689;48.798;9.070;2024-03-25T12:02:14;0.10;;;0.10;;
11263;SDS011;5689;48.798;9.070;2024-03-25T12:04:43;0.20;;;0.20;;
11263;SDS011;5689;48.798;9.070;2024-03-25T12:07:11;0.20;;;0.20;;
11263;SDS011;5689;48.798;9.070;2024-03-25T12:09:38;0.10;;;0.10;;
11263;SDS011;5689;48.798;9.070;2024-03-25T12:12:22;0.10;;;0.10;;
11263;SDS011;5689;48.798;9.070;2024-03-25T12:14:49;0.10;;;0.10;;
11263;SDS011;5689;48.798;9.070;2024-03-25T12:17:15;0.10;;;0.10;;
11263;SDS011;5689;48.798;9.070;2024-03-25T12:19:45;0.10;;;0.10;;
11263;SDS011;5689;48.798;9.070;2024-03-25T12:22:24;0.20;;;0.20;;
11263;SDS011;5689;48.798;9.070;2024-03-25T12:24:50;0.10;;;0.10;;
11263;SDS011;5689;48.798;9.070;2024-03-25T12:27:16;0.10;;;0.10;;
11263;SDS011;5689;48.798;9.070;2024-03-25T12:29:43;0.10;;;0.10;;
11263;SDS011;5689;48.798;9.070;2024-03-25T12:32:09;0.13;;;0.13;;
11263;SDS011;5689;48.798;9.070;2024-03-25T12:34:35;0.30;;;0.30;;
11263;SDS011;5689;48.798;9.070;2024-03-25T12:37:03;0.20;;;0.20;;
11263;SDS011;5689;48.798;9.070;2024-03-25T12:39:29;0.20;;;0.20;;
11263;SDS011;5689;48.798;9.070;2024-03-25T12:41:56;0.20;;;0.20;;
11263;SDS011;5689;48.798;9.070;2024-03-25T12:44:22;0.20;;;0.20;;
11263;SDS011;5689;48.798;9.070;2024-03-25T12:46:48;0.30;;;0.30;;
11263;SDS011;5689;48.798;9.070;2024-03-25T12:49:16;0.20;;;0.20;;
11263;SDS011;5689;48.798;9.070;2024-03-25T12:51:42;0.20;;;0.20;;
11263;SDS011;5689;48.798;9.070;2024-03-25T12:54:09;0.20;;;0.20;;
11263;SDS011;5689;48.798;9.070;2024-03-25T12:56:35;0.22;;;0.22;;
11263;SDS011;5689;48.798;9.070;2024-03-25T12:59:01;0.10;;;0.10;;
11263;SDS011;5689;48.798;9.070;2024-03-25T13:01:27;0.20;;;0.20;;
11263;SDS011;5689;48.798;9.070;2024-03-25T13:03:54;0.20;;;0.20;;
11263;SDS011;5689;48.798;9.070;2024-03-25T13:06:20;0.20;;;0.20;;
11263;SDS011;5689;48.798;9.070;2024-03-25T13:08:46;0.10;;;0.10;;
11263;SDS011;5689;48.798;9.070;2024-03-25T13:11:13;0.10;;;0.10;;
11263;SDS011;5689;48.798;9.070;2024-03-25T13:13:39;0.10;;;0.10;;
11263;SDS011;5689;48.798;9.070;2024-03-25T13:16:05;0.20;;;0.20;;
11263;SDS011;5689;48.798;9.070;2024-03-25T13:18:32;0.10;;;0.10;;
11263;SDS011;5689;48.798;9.070;2024-03-25T13:20:58;0.10;;;0.10;;
11263;SDS011;5689;48.798;9.070;2024-03-25T13:23:24;0.10;;;0.10;;
11263;SDS011;5689;48.798;9.070;2024-03-25T13:25:50;0.10;;;0.10;;
11263;SDS011;5689;48.798;9.070;2024-03-25T13:28:18;0.08;;;0.08;;
11263;SDS011;5689;48.798;9.070;2024-03-25T13:30:44;0.00;;;0.00;;
11263;SDS011;5689;48.798;9.070;2024-03-25T13:33:10;0.10;;;0.10;;
11263;SDS011;5689;48.798;9.070;2024-03-25T13:35:36;0.10;;;0.10;;
11263;SDS011;5689;48.798;9.070;2024-03-25T13:38:02;0.10;;;0.10;;
11263;SDS011;5689;48.798;9.070;2024-03-25T13:40:28;0.10;;;0.10;;
11263;SDS011;5689;48.798;9.070;2024-03-25T13:42:54;0.10;;;0.10;;
11263;SDS011;5689;48.798;9.070;2024-03-25T13:45:22;0.10;;;0.10;;
11263;SDS011;5689;48.798;9.070;2024-03-25T13:47:48;0.00;;;0.00;;
11263;SDS011;5689;48.798;9.070;2024-03-25T13:50:14;0.10;;;0.10;;
11263;SDS011;5689;48.798;9.070;2024-03-25T13:52:40;0.10;;;0.10;;
11263;SDS011;5689;48.798;9.070;2024-03-25T13:55:07;0.00;;;0.00;;
11263;SDS011;5689;48.798;9.070;2024-03-25T13:57:33;0.10;;;0.10;;
11263;SDS011;5689;48.798;9.070;2024-03-25T13:59:59;0.10;;;0.10;;
11263;SDS011;5689;48.798;9.070;2024-03-25T14:02:26;0.00;;;0.00;;
11263;SDS011;5689;48.798;9.070;2024-03-25T14:04:52;0.10;;;0.10;;
11263;SDS011;5689;48.798;9.070;2024-03-25T14:07:18;0.10;;;0.10;;
11263;SDS011;5689;48.798;9.070;2024-03-25T14:09:45;0.00;;;0.00;;
11263;SDS011;5689;48.798;9.070;2024-03-25T14:12:11;0.10;;;0.10;;
11263;SDS011;5689;48.798;9.070;2024-03-25T14:14:37;0.00;;;0.00;;
11263;SDS011;5689;48.798;9.070;2024-03-25T14:17:03;0.10;;;0.10;;
11263;SDS011;5689;48.798;9.070;2024-03-25T14:19:31;0.10;;;0.10;;
11263;SDS011;5689;48.798;9.070;2024-03-25T14:21:57;0.10;;;0.10;;
11263;SDS011;5689;48.798;9.070;2024-03-25T14:24:23;0.10;;;0.10;;
11263;SDS011;5689;48.798;9.070;2024-03-25T14:26:49;0.10;;;0.10;;
11263;SDS011;5689;48.798;9.070;2024-03-25T14:29:15;0.15;;;0.15;;
11263;SDS011;5689;48.798;9.070;2024-03-25T14:31:41;0.10;;;0.10;;
11263;SDS011;5689;48.798;9.070;2024-03-25T14:34:07;0.10;;;0.10;;
11263;SDS011;5689;48.798;9.070;2024-03-25T14:36:35;0.10;;;0.10;;
11263;SDS011;5689;48.798;9.070;2024-03-25T14:39:01;0.20;;;0.20;;
11263;SDS011;5689;48.798;9.070;2024-03-25T14:41:28;0.10;;;0.10;;
11263;SDS011;5689;48.798;9.070;2024-03-25T14:44:04;0.10;;;0.10;;
11263;SDS011;5689;48.798;9.070;2024-03-25T14:46:30;0.10;;;0.10;;
11263;SDS011;5689;48.798;9.070;2024-03-25T14:48:56;0.10;;;0.10;;
11263;SDS011;5689;48.798;9.070;2024-03-25T14:51:23;0.10;;;0.10;;
11263;SDS011;5689;48.798;9.070;2024-03-25T14:53:50;0.10;;;0.10;;
11263;SDS011;5689;48.798;9.070;2024-03-25T14:56:16;0.10;;;0.10;;
11263;SDS011;5689;48.798;9.070;2024-03-25T14:58:42;0.10;;;0.10;;